Flight Track Log - Related Links

Times and Time Zones

All times are in EDT time to prevent confusion due to time zone crossing. See the DAL268 flight status page for this flight to view local times or setup timezone preferences in your user account.

Time Position Orientation Groundspeed Altitude Reporting Facility
EDT Latitude Longitude Course Direction KTS MPH feet Rate Location/Type
Tue 02:56:21 PM 37.6160 -122.3750 90° East 140 161  Level FlightAware ADS-B
Tue 02:56:30 PM 37.6243 -122.3690 30° Northeast 174 200 100 1,750 Climbing FlightAware ADS-B
Tue 02:56:45 PM 37.6349 -122.3620 28° Northeast 178 205 700 2,182 Climbing FlightAware ADS-B
Tue 02:56:52 PM 37.6393 -122.3580 36° Northeast 180 207 900 2,182 Climbing FlightAware ADS-B
Tue 02:56:56 PM 37.6420 -122.3550 41° Northeast 181 208 1,100 3,000 Climbing FlightAware ADS-B
Tue 02:57:04 PM 37.6471 -122.3490 43° Northeast 186 214 1,500 1,714 Climbing FlightAware ADS-B
Tue 02:57:24 PM 37.6600 -122.3320 46° Northeast 204 235 1,900 1,622 Climbing FlightAware ADS-B
Tue 02:57:41 PM 37.6720 -122.3170 45° Northeast 224 258 2,500 1,818 Climbing FlightAware ADS-B
Tue 02:57:57 PM 37.6841 -122.3020 44° Northeast 240 276 2,900 1,500 Climbing FlightAware ADS-B
Tue 02:58:13 PM 37.6972 -122.2850 46° Northeast 263 303 3,300 2,250 Climbing FlightAware ADS-B
Tue 02:58:37 PM 37.7178 -122.2580 46° Northeast 268 308 4,400 2,700 Climbing FlightAware ADS-B
Tue 02:58:53 PM 37.7319 -122.2400 45° Northeast 273 314 5,100 2,727 Climbing FlightAware ADS-B
Tue 02:59:21 PM 37.7577 -122.2080 44° Northeast 279 321 6,400 2,591 Climbing FlightAware ADS-B
Tue 02:59:37 PM 37.7722 -122.1890 46° Northeast 282 325 7,000 2,438 Climbing FlightAware ADS-B
Tue 02:59:53 PM 37.7873 -122.1700 45° Northeast 286 329 7,700 2,538 Climbing FlightAware ADS-B
Tue 03:00:03 PM 37.7966 -122.1580 46° Northeast 289 333 8,100 2,625 Climbing FlightAware ADS-B
Tue 03:00:09 PM 37.8029 -122.1510 41° Northeast 291 335 8,400 2,727 Climbing FlightAware ADS-B
Tue 03:00:25 PM 37.8193 -122.1340 39° Northeast 293 337 9,100 2,471 Climbing FlightAware ADS-B
Tue 03:00:43 PM 37.8385 -122.1160 37° Northeast 297 342 9,800 1,875 Climbing FlightAware ADS-B
Tue 03:01:13 PM 37.8736 -122.0830 37° Northeast 321 369 10,600 1,279 Climbing FlightAware ADS-B
Tue 03:01:44 PM 37.9122 -122.0480 36° Northeast 353 406 11,100 984 Climbing FlightAware ADS-B
Tue 03:02:14 PM 37.9544 -122.0090 36° Northeast 381 438 11,600 1,477 Climbing FlightAware ADS-B
Tue 03:02:49 PM 38.0059 -121.9610 36° Northeast 391 450 12,700 1,917 Climbing FlightAware ADS-B
Tue 03:03:26 PM 38.0540 -121.9160 36° Northeast 399 459 13,900 2,000 Climbing FlightAware ADS-B
Tue 03:04:01 PM 38.1090 -121.8650 36° Northeast 406 467 15,100 2,091 Climbing FlightAware ADS-B
Tue 03:04:32 PM 38.1570 -121.8200 36° Northeast 412 474 16,200 1,859 Climbing FlightAware ADS-B
Tue 03:05:12 PM 38.2170 -121.7650 36° Northeast 419 482 17,300 1,726 Climbing FlightAware ADS-B
Tue 03:05:45 PM 38.2700 -121.7140 37° Northeast 426 490 18,300 1,739 Climbing FlightAware ADS-B
Tue 03:06:21 PM 38.3270 -121.6610 36° Northeast 435 501 19,300 1,562 Climbing FlightAware ADS-B
Tue 03:06:58 PM 38.3850 -121.6070 36° Northeast 443 510 20,200 1,588 Climbing FlightAware ADS-B
Tue 03:07:29 PM 38.4380 -121.5520 39° Northeast 451 519 21,100 1,652 Climbing FlightAware ADS-B
Tue 03:08:07 PM 38.4900 -121.4740 50° Northeast 456 525 22,100 1,652 Climbing FlightAware ADS-B
Tue 03:08:38 PM 38.5300 -121.4060 53° Northeast 461 531 23,000 1,690 Climbing FlightAware ADS-B
Tue 03:09:18 PM 38.5800 -121.3180 54° Northeast 465 535 24,100 1,680 Climbing FlightAware ADS-B
Tue 03:09:28 PM 38.5957 -121.2910 53° Northeast 457 526 24,400 1,455 Climbing FlightAware ADS-B
Tue 03:10:24 PM 38.6640 -121.1730 53° Northeast 472 543 25,700 1,375 Climbing FlightAware ADS-B
Tue 03:11:04 PM 38.7150 -121.0850 53° Northeast 476 548 26,600 1,391 Climbing FlightAware ADS-B
Tue 03:11:33 PM 38.7530 -121.0200 53° Northeast 479 551 27,300 1,333 Climbing FlightAware ADS-B
Tue 03:12:07 PM 38.7990 -120.9390 54° Northeast 484 557 28,000 1,200 Climbing FlightAware ADS-B
Tue 03:12:48 PM 38.8550 -120.8410 54° Northeast 487 560 28,800 1,333 Climbing FlightAware ADS-B
Tue 03:13:19 PM 38.8950 -120.7730 53° Northeast 486 559 29,600 1,343 Climbing FlightAware ADS-B
Tue 03:13:55 PM 38.9450 -120.6860 54° Northeast 488 562 30,300 1,268 Climbing FlightAware ADS-B
Tue 03:14:30 PM 38.9930 -120.6040 53° Northeast 487 560 31,100 1,250 Climbing FlightAware ADS-B
Tue 03:15:07 PM 39.0410 -120.5200 54° Northeast 485 558 31,800 1,200 Climbing FlightAware ADS-B
Tue 03:15:40 PM 39.0830 -120.4480 53° Northeast 485 558 32,500 1,200 Climbing FlightAware ADS-B
Tue 03:16:17 PM 39.1360 -120.3550 54° Northeast 486 559 33,200 1,043 Climbing FlightAware ADS-B
Tue 03:16:49 PM 39.1790 -120.2790 54° Northeast 488 562 33,700 1,091 Climbing FlightAware ADS-B
Tue 03:17:34 PM 39.2390 -120.1740 54° Northeast 486 559 34,600 987 Climbing FlightAware ADS-B
Tue 03:18:08 PM 39.2850 -120.0920 54° Northeast 488 562 35,000 353 Climbing FlightAware ADS-B
Tue 03:18:42 PM 39.3300 -120.0130 54° Northeast 489 563 35,000 435 Level FlightAware ADS-B
Tue 03:19:17 PM 39.3760 -119.9320 54° Northeast 488 562 35,500 857 Climbing FlightAware ADS-B
Tue 03:19:52 PM 39.4240 -119.8470 54° Northeast 488 562 36,000 896 Climbing FlightAware ADS-B
Tue 03:20:24 PM 39.4660 -119.7730 54° Northeast 487 560 36,500 730 Climbing FlightAware ADS-B
Tue 03:21:06 PM 39.5210 -119.6750 54° Northeast 489 563 36,900 405 Climbing FlightAware ADS-B
Tue 03:21:38 PM 39.5650 -119.5960 54° Northeast 492 566 37,000 88 Climbing FlightAware ADS-B
Tue 03:22:14 PM 39.6120 -119.5120 54° Northeast 490 564 37,000  Level FlightAware ADS-B
Tue 03:22:42 PM 39.6490 -119.4450 54° Northeast 490 564 37,000  Level FlightAware ADS-B
Tue 03:23:14 PM 39.6920 -119.3680 54° Northeast 491 565 37,000  Level FlightAware ADS-B
Tue 03:23:54 PM 39.7440 -119.2730 55° Northeast 491 565 37,000  Level FlightAware ADS-B
Tue 03:24:28 PM 39.7900 -119.1910 54° Northeast 491 565 37,000  Level FlightAware ADS-B
Tue 03:25:04 PM 39.8370 -119.1050 55° Northeast 491 565 37,000  Level FlightAware ADS-B
Tue 03:25:36 PM 39.8790 -119.0290 54° Northeast 491 565 37,000  Level FlightAware ADS-B
Tue 03:26:08 PM 39.9210 -118.9520 55° Northeast 491 565 37,000  Level FlightAware ADS-B
Tue 03:26:44 PM 39.9690 -118.8650 54° Northeast 490 564 37,000  Level FlightAware ADS-B
Tue 03:27:21 PM 40.0150 -118.7800 55° Northeast 491 565 37,000  Level FlightAware ADS-B
Tue 03:27:56 PM 40.0640 -118.6910 54° Northeast 492 566 37,000  Level FlightAware ADS-B
Tue 03:28:28 PM 40.1050 -118.6130 55° Northeast 492 566 37,000  Level FlightAware ADS-B
Tue 03:29:08 PM 40.1450 -118.5060 64° Northeast 492 566 37,000  Level FlightAware ADS-B
Tue 03:29:40 PM 40.1700 -118.4180 70° East 491 565 37,000  Level FlightAware ADS-B
Tue 03:30:16 PM 40.1960 -118.3220 70° East 493 567 37,000  Level FlightAware ADS-B
Tue 03:31:05 PM 40.2340 -118.1820 70° East 492 566 37,000  Level FlightAware ADS-B
Tue 03:31:54 PM 40.2720 -118.0430 70° East 492 566 37,000  Level FlightAware ADS-B
Tue 03:32:24 PM 40.2920 -117.9660 71° East 492 566 37,000  Level FlightAware ADS-B
Tue 03:33:03 PM 40.3180 -117.8730 70° East 492 566 37,000  Level FlightAware ADS-B
Tue 03:33:39 PM 40.3420 -117.7870 70° East 492 566 37,000  Level FlightAware ADS-B
Tue 03:34:15 PM 40.3660 -117.7010 70° East 492 566 37,000  Level FlightAware ADS-B
Tue 03:34:54 PM 40.3920 -117.6080 70° East 492 566 37,000  Level FlightAware ADS-B
Tue 03:35:30 PM 40.4160 -117.5220 70° East 492 566 37,000  Level FlightAware ADS-B
Tue 03:36:07 PM 40.4400 -117.4340 70° East 492 566 37,000  Level FlightAware ADS-B
Tue 03:36:44 PM 40.4640 -117.3450 70° East 492 566 37,000  Level FlightAware ADS-B
Tue 03:37:20 PM 40.4880 -117.2590 70° East 492 566 37,000  Level FlightAware ADS-B
Tue 03:37:57 PM 40.5130 -117.1710 69° East 492 566 37,000  Level FlightAware ADS-B
Tue 03:38:33 PM 40.5370 -117.0850 70° East 492 566 37,000  Level FlightAware ADS-B
Tue 03:39:09 PM 40.5600 -116.9990 71° East 492 566 37,000  Level FlightAware ADS-B
Tue 03:39:45 PM 40.5840 -116.9120 70° East 492 566 37,000  Level FlightAware ADS-B
Tue 03:40:21 PM 40.6080 -116.8260 70° East 492 566 37,000  Level FlightAware ADS-B
Tue 03:40:57 PM 40.6320 -116.7400 70° East 492 566 37,000  Level FlightAware ADS-B
Tue 03:41:33 PM 40.6560 -116.6540 70° East 492 566 37,000  Level FlightAware ADS-B
Tue 03:42:09 PM 40.6790 -116.5670 71° East 492 566 37,000  Level FlightAware ADS-B
Tue 03:44:23 PM 40.9369 -115.9730 60° Northeast 498 573 37,000  Level FlightAware ADS-B
Tue 03:44:57 PM 40.9723 -115.8800 63° Northeast 498 573 37,000  Level FlightAware ADS-B
Tue 03:47:47 PM 41.1470 -115.4160 63° Northeast 497 572 37,000  Level FlightAware ADS-B
Tue 03:48:21 PM 41.1819 -115.3230 63° Northeast 498 573 37,000  Level FlightAware ADS-B
Tue 03:48:52 PM 41.2130 -115.2400 64° Northeast 496 571 37,000  Level FlightAware ADS-B
Tue 03:49:22 PM 41.2435 -115.1570 64° Northeast 497 572 37,000  Level FlightAware ADS-B
Tue 03:49:53 PM 41.2744 -115.0740 64° Northeast 496 571 37,000  Level FlightAware ADS-B
Tue 03:50:23 PM 41.3047 -114.9910 64° Northeast 496 571 37,000  Level FlightAware ADS-B
Tue 03:50:55 PM 41.3369 -114.9040 64° Northeast 496 571 37,000  Level FlightAware ADS-B
Tue 03:51:25 PM 41.3675 -114.8200 64° Northeast 496 571 37,000  Level FlightAware ADS-B
Tue 03:51:58 PM 41.4004 -114.7300 64° Northeast 497 572 37,000  Level FlightAware ADS-B
Tue 03:52:34 PM 41.4366 -114.6310 64° Northeast 497 572 37,000  Level FlightAware ADS-B
Tue 03:53:06 PM 41.4687 -114.5430 64° Northeast 497 572 37,000  Level FlightAware ADS-B
Tue 03:53:36 PM 41.4988 -114.4600 64° Northeast 498 573 37,000  Level FlightAware ADS-B
Tue 03:54:07 PM 41.5291 -114.3760 64° Northeast 499 574 37,000  Level FlightAware ADS-B
Tue 03:54:38 PM 41.5603 -114.2890 64° Northeast 499 574 37,000  Level FlightAware ADS-B
Tue 03:55:08 PM 41.5903 -114.2060 64° Northeast 499 574 37,000  Level FlightAware ADS-B
Tue 03:55:39 PM 41.6206 -114.1210 64° Northeast 500 575 37,000  Level FlightAware ADS-B
Tue 03:56:09 PM 41.6506 -114.0370 64° Northeast 499 574 37,000  Level FlightAware ADS-B
Tue 03:56:45 PM 41.6859 -113.9370 65° Northeast 499 574 37,000  Level FlightAware ADS-B
Tue 03:57:15 PM 41.7159 -113.8530 64° Northeast 500 575 37,000  Level FlightAware ADS-B
Tue 03:57:46 PM 41.7467 -113.7660 65° Northeast 501 577 37,000  Level FlightAware ADS-B
Tue 03:58:16 PM 41.7766 -113.6810 65° Northeast 501 577 37,000  Level FlightAware ADS-B
Tue 03:58:47 PM 41.8064 -113.5960 65° Northeast 501 577 37,000  Level FlightAware ADS-B
Tue 03:59:32 PM 41.8506 -113.4700 65° Northeast 502 578 37,000  Level FlightAware ADS-B
Tue 04:00:23 PM 41.9012 -113.3250 65° Northeast 502 578 37,000  Level FlightAware ADS-B
Tue 04:00:59 PM 41.9360 -113.2250 65° Northeast 502 578 37,000  Level FlightAware ADS-B
Tue 04:01:15 PM 41.9514 -113.1800 65° Northeast 502 578 37,000  Level FlightAware ADS-B
Tue 04:02:14 PM 42.0098 -113.0100 65° Northeast 503 579 37,000  Level FlightAware ADS-B
Tue 04:02:49 PM 42.0429 -112.9140 65° Northeast 504 580 37,000  Level FlightAware ADS-B
Tue 04:03:33 PM 42.0860 -112.7890 65° Northeast 502 578 37,000  Level FlightAware ADS-B
Tue 04:04:07 PM 42.1180 -112.6930 66° East 502 578 37,000  Level FlightAware ADS-B
Tue 04:04:44 PM 42.1490 -112.6040 65° Northeast 502 578 37,000  Level FlightAware ADS-B
Tue 04:05:33 PM 42.1930 -112.4590 68° East 502 578 37,000  Level FlightAware ADS-B
Tue 04:06:05 PM 42.2020 -112.3480 84° East 502 578 37,000  Level FlightAware ADS-B
Tue 04:06:45 PM 42.2170 -112.2430 79° East 502 578 37,000  Level FlightAware ADS-B
Tue 04:07:23 PM 42.2380 -112.1050 78° East 501 577 37,000  Level FlightAware ADS-B
Tue 04:08:01 PM 42.2530 -112.0060 78° East 501 577 37,000  Level FlightAware ADS-B
Tue 04:08:27 PM 42.2659 -111.9090 80° East 500 575 37,000  Level FlightAware ADS-B
Tue 04:09:02 PM 42.2806 -111.8020 79° East 499 574 37,000  Level FlightAware ADS-B
Tue 04:09:50 PM 42.3017 -111.6530 79° East 500 575 37,000  Level FlightAware ADS-B
Tue 04:10:21 PM 42.3150 -111.5630 79° East 498 573 37,000  Level FlightAware ADS-B
Tue 04:10:59 PM 42.3323 -111.4440 79° East 499 574 37,000  Level FlightAware ADS-B
Tue 04:11:31 PM 42.3460 -111.3510 79° East 495 570 37,000  Level FlightAware ADS-B
Tue 04:12:09 PM 42.3600 -111.2520 79° East 495 570 37,000  Level FlightAware ADS-B
Tue 04:12:57 PM 42.3820 -111.0920 79° East 492 566 37,000  Level FlightAware ADS-B
Tue 04:13:33 PM 42.3980 -110.9780 79° East 491 565 37,000  Level FlightAware ADS-B
Tue 04:14:11 PM 42.4120 -110.8790 79° East 491 565 37,000  Level FlightAware ADS-B
Tue 04:14:47 PM 42.4260 -110.7860 78° East 491 565 37,000  Level FlightAware ADS-B
Tue 04:15:23 PM 42.4390 -110.6940 79° East 491 565 37,000  Level FlightAware ADS-B
Tue 04:15:59 PM 42.4520 -110.6010 79° East 491 565 37,000  Level FlightAware ADS-B
Tue 04:16:35 PM 42.4650 -110.5090 79° East 491 565 37,000  Level FlightAware ADS-B
Tue 04:17:12 PM 42.4790 -110.4140 79° East 491 565 37,000  Level FlightAware ADS-B
Tue 04:17:48 PM 42.4920 -110.3210 79° East 491 565 37,000  Level FlightAware ADS-B
Tue 04:18:24 PM 42.5060 -110.2290 78° East 491 565 37,000  Level FlightAware ADS-B
Tue 04:19:00 PM 42.5190 -110.1360 79° East 491 565 37,000  Level FlightAware ADS-B
Tue 04:19:36 PM 42.5320 -110.0430 79° East 491 565 37,000  Level FlightAware ADS-B
Tue 04:20:12 PM 42.5450 -109.9510 79° East 491 565 37,000  Level FlightAware ADS-B
Tue 04:20:48 PM 42.5590 -109.8580 78° East 491 565 37,000  Level FlightAware ADS-B
Tue 04:21:24 PM 42.5720 -109.7660 79° East 491 565 37,000  Level FlightAware ADS-B
Tue 04:22:01 PM 42.5850 -109.6700 80° East 491 565 37,000  Level FlightAware ADS-B
Tue 04:22:37 PM 42.5990 -109.5780 78° East 491 565 37,000  Level FlightAware ADS-B
Tue 04:23:13 PM 42.6120 -109.4850 79° East 491 565 37,000  Level FlightAware ADS-B
Tue 04:24:00 PM 42.9531 -109.2239 79° East 487 560 37,000  Level Salt Lake Center
Tue 04:25:02 PM 43.0144 -109.0694 61° Northeast 485 558 37,000  Level Salt Lake Center
Tue 04:26:04 PM 43.0742 -108.9172 62° Northeast 477 549 37,000  Level Salt Lake Center
Tue 04:27:06 PM 43.1442 -108.7378 62° Northeast 478 550 37,000  Level Salt Lake Center
Tue 04:28:08 PM 43.2044 -108.5836 62° Northeast 479 551 37,000  Level Salt Lake Center
Tue 04:29:10 PM 43.2736 -108.4025 62° Northeast 480 552 37,000  Level Salt Lake Center
Tue 04:30:11 PM 43.3333 -108.2486 62° Northeast 479 551 37,000  Level Salt Lake Center
Tue 04:31:13 PM 43.4017 -108.0669 63° Northeast 479 551 37,000  Level Salt Lake Center
Tue 04:32:15 PM 43.4603 -107.9119 62° Northeast 478 550 37,000  Level Salt Lake Center
Tue 04:33:17 PM 43.5289 -107.7303 62° Northeast 478 550 37,000  Level Salt Lake Center
Tue 04:34:19 PM 43.5867 -107.5744 63° Northeast 479 551 37,000  Level Salt Lake Center
Tue 04:35:21 PM 43.6542 -107.3919 63° Northeast 478 550 37,000  Level Salt Lake Center
Tue 04:36:23 PM 43.7106 -107.2389 63° Northeast 479 551 37,000  Level Salt Lake Center
Tue 04:37:25 PM 43.7772 -107.0542 63° Northeast 481 554 37,000  Level Salt Lake Center
Tue 04:38:27 PM 43.8022 -106.8853 78° East 472 543 37,000  Level Salt Lake Center
Tue 04:39:28 PM 43.8114 -106.7131 86° East 467 537 37,000  Level Salt Lake Center
Tue 04:39:58 PM 43.8175 -106.5967 86° East 470 541 37,000  Level Denver Center
Tue 04:41:00 PM 43.8256 -106.4247 86° East 468 539 37,000  Level Denver Center
Tue 04:42:02 PM 43.8350 -106.2531 86° East 468 539 37,000  Level Denver Center
Tue 04:43:04 PM 43.8461 -106.0522 86° East 468 539 37,000  Level Denver Center
Tue 04:44:06 PM 43.8558 -105.8803 85° East 467 537 37,000  Level Denver Center
Tue 04:45:07 PM 43.8644 -105.7092 86° East 466 536 37,000  Level Denver Center
Tue 04:46:10 PM 43.8753 -105.5086 86° East 466 536 37,000  Level Denver Center
Tue 04:47:12 PM 43.8858 -105.3092 86° East 466 536 37,000  Level Denver Center
Tue 04:48:13 PM 43.8931 -105.1667 86° East 465 535 37,000  Level Denver Center
Tue 04:49:15 PM 43.9033 -104.9400 86° East 463 533 37,000  Level Denver Center
Tue 04:50:17 PM 43.9111 -104.7700 86° East 462 532 37,000  Level Denver Center
Tue 04:51:19 PM 43.9189 -104.5992 86° East 463 533 37,000  Level Denver Center
Tue 04:52:21 PM 43.9267 -104.4008 87° East 462 532 37,000  Level Denver Center
Tue 04:53:23 PM 43.9106 -104.2400 98° East 444 511 37,000  Level Denver Center
Tue 04:54:25 PM 43.8917 -104.0464 98° East 451 519 37,000  Level Denver Center
Tue 04:55:27 PM 43.8756 -103.8825 98° East 451 519 37,000  Level Denver Center
Tue 04:56:29 PM 43.8608 -103.6900 96° East 451 519 37,000  Level Denver Center
Tue 04:57:31 PM 43.8692 -103.5217 86° East 458 527 37,000  Level Denver Center
Tue 04:58:33 PM 43.8997 -103.3297 77° East 458 527 37,000  Level Denver Center
Tue 04:59:35 PM 43.9261 -103.1650 77° East 458 527 37,000  Level Denver Center
Tue 05:00:37 PM 43.9517 -102.9992 78° East 459 528 37,000  Level Denver Center
Tue 05:01:38 PM 43.9833 -102.7900 78° East 467 537 37,000  Level Denver Center
Tue 05:02:40 PM 44.0078 -102.6108 79° East 471 542 37,000  Level Denver Center
Tue 05:03:42 PM 44.0350 -102.4353 78° East 469 540 37,000  Level Denver Center
Tue 05:04:44 PM 44.0606 -102.2561 79° East 472 543 37,000  Level Denver Center
Tue 05:05:46 PM 44.0839 -102.0758 80° East 473 544 37,000  Level Denver Center
Tue 05:06:48 PM 44.1081 -101.8978 79° East 472 543 37,000  Level Denver Center
Tue 05:07:50 PM 44.1306 -101.7206 80° East 467 537 37,000  Level Denver Center
Tue 05:08:53 PM 44.1619 -101.5142 78° East 465 535 37,000  Level Minneapolis Center
Tue 05:09:54 PM 44.1844 -101.3392 80° East 457 526 37,000  Level Denver Center
Tue 05:10:58 PM 44.2097 -101.1697 78° East 457 526 37,000  Level Minneapolis Center
Tue 05:12:00 PM 44.2331 -100.9986 79° East 455 524 37,000  Level Minneapolis Center
Tue 05:13:02 PM 44.2556 -100.8258 80° East 454 522 37,000  Level Minneapolis Center
Tue 05:14:04 PM 44.2836 -100.6169 79° East 457 526 37,000  Level Minneapolis Center
Tue 05:15:06 PM 44.3061 -100.4406 80° East 462 532 37,000  Level Minneapolis Center
Tue 05:16:08 PM 44.3286 -100.2656 80° East 462 532 37,000  Level Minneapolis Center
Tue 05:17:10 PM 44.3514 -100.0883 80° East 465 535 37,000  Level Minneapolis Center
Tue 05:18:12 PM 44.3731 -99.9106 80° East 466 536 37,000  Level Minneapolis Center
Tue 05:19:15 PM 44.3986 -99.6956 80° East 468 539 37,000  Level Minneapolis Center
Tue 05:20:17 PM 44.4211 -99.5156 80° East 472 543 37,000  Level Minneapolis Center
Tue 05:21:19 PM 44.4433 -99.3347 80° East 474 545 37,000  Level Minneapolis Center
Tue 05:22:21 PM 44.4644 -99.1528 81° East 475 547 37,000  Level Minneapolis Center
Tue 05:27:38 PM 44.5760 -98.1590 81° East 481 554 37,000  Level FlightAware ADS-B
Tue 05:28:13 PM 44.5880 -98.0480 81° East 483 556 37,000  Level FlightAware ADS-B
Tue 05:28:49 PM 44.5970 -97.9360 84° East 487 560 37,000  Level FlightAware ADS-B
Tue 05:29:22 PM 44.6030 -97.8370 85° East 486 559 37,000  Level FlightAware ADS-B
Tue 05:29:59 PM 44.6090 -97.7200 86° East 487 560 37,000  Level FlightAware ADS-B
Tue 05:30:34 PM 44.6150 -97.6100 86° East 487 560 37,000  Level FlightAware ADS-B
Tue 05:31:09 PM 44.6210 -97.4980 86° East 487 560 37,000  Level FlightAware ADS-B
Tue 05:31:43 PM 44.6260 -97.3900 86° East 488 562 37,000  Level FlightAware ADS-B
Tue 05:32:17 PM 44.6310 -97.2880 86° East 488 562 37,000  Level FlightAware ADS-B
Tue 05:32:55 PM 44.6370 -97.1660 86° East 489 563 37,000  Level FlightAware ADS-B
Tue 05:33:31 PM 44.6430 -97.0500 86° East 489 563 37,000  Level FlightAware ADS-B
Tue 05:34:04 PM 44.6470 -96.9480 87° East 488 562 37,000  Level FlightAware ADS-B
Tue 05:34:38 PM 44.6520 -96.8380 86° East 489 563 37,000  Level FlightAware ADS-B
Tue 05:35:15 PM 44.6580 -96.7220 86° East 490 564 37,000  Level FlightAware ADS-B
Tue 05:35:51 PM 44.6620 -96.6090 87° East 490 564 37,000  Level FlightAware ADS-B
Tue 05:36:24 PM 44.6670 -96.5010 86° East 490 564 37,000  Level FlightAware ADS-B
Tue 05:37:01 PM 44.6720 -96.3880 86° East 491 565 37,000  Level FlightAware ADS-B
Tue 05:37:38 PM 44.6760 -96.2670 87° East 492 566 37,000  Level FlightAware ADS-B
Tue 05:38:10 PM 44.6810 -96.1650 86° East 492 566 37,000  Level FlightAware ADS-B
Tue 05:38:47 PM 44.6850 -96.0470 87° East 492 566 37,000  Level FlightAware ADS-B
Tue 05:39:18 PM 44.6890 -95.9480 87° East 491 565 37,000 -338 Level FlightAware ADS-B
Tue 05:39:58 PM 44.6930 -95.8230 87° East 485 558 36,600 -917 Descending FlightAware ADS-B
Tue 05:40:30 PM 44.6970 -95.7220 87° East 486 559 35,900 -1,235 Descending FlightAware ADS-B
Tue 05:41:06 PM 44.7010 -95.6110 87° East 487 560 35,200 -750 Descending FlightAware ADS-B
Tue 05:41:42 PM 44.7050 -95.4930 87° East 488 562 35,000 -167 Descending FlightAware ADS-B
Tue 05:42:18 PM 44.7090 -95.3790 87° East 488 562 35,000  Level FlightAware ADS-B
Tue 05:42:50 PM 44.7120 -95.2780 88° East 489 563 35,000  Level FlightAware ADS-B
Tue 05:43:26 PM 44.7150 -95.1640 88° East 490 564 35,000  Level FlightAware ADS-B
Tue 05:44:02 PM 44.7190 -95.0490 87° East 490 564 35,000  Level FlightAware ADS-B
Tue 05:44:34 PM 44.7210 -94.9490 88° East 490 564 35,000  Level FlightAware ADS-B
Tue 05:45:10 PM 44.7250 -94.8380 87° East 489 563 35,000  Level FlightAware ADS-B
Tue 05:45:48 PM 44.7280 -94.7140 88° East 488 562 35,000  Level FlightAware ADS-B
Tue 05:46:20 PM 44.7300 -94.6130 88° East 488 562 35,000  Level FlightAware ADS-B
Tue 05:46:56 PM 44.7330 -94.5000 88° East 488 562 35,000  Level FlightAware ADS-B
Tue 05:47:32 PM 44.7360 -94.3850 88° East 489 563 35,000  Level FlightAware ADS-B
Tue 05:48:04 PM 44.7380 -94.2830 88° East 489 563 35,000  Level FlightAware ADS-B
Tue 05:48:40 PM 44.7410 -94.1700 88° East 490 564 35,000  Level FlightAware ADS-B
Tue 05:49:14 PM 44.7430 -94.0600 88° East 492 566 35,000  Level FlightAware ADS-B
Tue 05:49:50 PM 44.7450 -93.9460 89° East 493 567 35,000  Level FlightAware ADS-B
Tue 05:50:26 PM 44.7480 -93.8310 88° East 494 568 35,000  Level FlightAware ADS-B
Tue 05:51:01 PM 44.7500 -93.7200 89° East 496 571 35,000  Level FlightAware ADS-B
Tue 05:51:40 PM 44.7520 -93.5950 89° East 496 571 35,000  Level FlightAware ADS-B
Tue 05:52:19 PM 44.7540 -93.4680 89° East 497 572 35,000  Level FlightAware ADS-B
Tue 05:53:04 PM 44.7560 -93.3200 89° East 498 573 35,000  Level FlightAware ADS-B
Tue 05:53:42 PM 44.7560 -93.1990 90° East 500 575 35,000  Level FlightAware ADS-B
Tue 05:54:14 PM 44.7540 -93.0970 92° East 501 577 35,000  Level FlightAware ADS-B
Tue 05:55:00 PM 44.7500 -92.9470 92° East 501 577 35,000  Level FlightAware ADS-B
Tue 05:55:36 PM 44.7470 -92.8290 92° East 501 577 35,000  Level FlightAware ADS-B
Tue 05:56:08 PM 44.7430 -92.7250 93° East 501 577 35,000  Level FlightAware ADS-B
Tue 05:56:53 PM 44.7400 -92.5930 92° East 501 577 35,000  Level FlightAware ADS-B
Tue 05:57:30 PM 44.7370 -92.4910 92° East 501 577 35,000  Level FlightAware ADS-B
Tue 05:58:16 PM 44.7290 -92.3140 94° East 499 574 35,000  Level FlightAware ADS-B
Tue 05:58:48 PM 44.7260 -92.2060 92° East 498 573 35,000  Level FlightAware ADS-B
Tue 05:59:24 PM 44.7210 -92.0910 93° East 498 573 35,000  Level FlightAware ADS-B
Tue 06:00:01 PM 44.7170 -91.9750 93° East 498 573 35,000  Level FlightAware ADS-B
Tue 06:00:36 PM 44.7120 -91.8570 93° East 499 574 35,000  Level FlightAware ADS-B
Tue 06:01:08 PM 44.7080 -91.7550 93° East 500 575 35,000  Level FlightAware ADS-B
Tue 06:01:44 PM 44.7040 -91.6380 93° East 500 575 35,000  Level FlightAware ADS-B
Tue 06:02:20 PM 44.6990 -91.5190 93° East 500 575 35,000  Level FlightAware ADS-B
Tue 06:02:56 PM 44.6940 -91.4060 94° East 499 574 35,000  Level FlightAware ADS-B
Tue 06:03:28 PM 44.6890 -91.3020 94° East 499 574 35,000  Level FlightAware ADS-B
Tue 06:04:04 PM 44.6840 -91.1840 93° East 500 575 35,000  Level FlightAware ADS-B
Tue 06:04:39 PM 44.6790 -91.0710 94° East 500 575 35,000  Level FlightAware ADS-B
Tue 06:05:15 PM 44.6730 -90.9540 94° East 501 577 35,000  Level FlightAware ADS-B
Tue 06:05:51 PM 44.6680 -90.8400 93° East 501 577 35,000  Level FlightAware ADS-B
Tue 06:06:23 PM 44.6630 -90.7350 94° East 501 577 35,000  Level FlightAware ADS-B
Tue 06:06:59 PM 44.6570 -90.6210 94° East 502 578 35,000  Level FlightAware ADS-B
Tue 06:07:29 PM 44.6520 -90.5200 94° East 503 579 35,000  Level FlightAware ADS-B
Tue 06:08:11 PM 44.6450 -90.3850 94° East 503 579 35,000  Level FlightAware ADS-B
Tue 06:08:45 PM 44.6390 -90.2740 94° East 504 580 35,000  Level FlightAware ADS-B
Tue 06:09:21 PM 44.6330 -90.1560 94° East 505 581 35,000  Level FlightAware ADS-B
Tue 06:09:53 PM 44.6270 -90.0530 95° East 507 583 35,000  Level FlightAware ADS-B
Tue 06:10:31 PM 44.6200 -89.9270 94° East 508 585 35,000  Level FlightAware ADS-B
Tue 06:11:07 PM 44.6130 -89.8090 95° East 508 585 35,000  Level FlightAware ADS-B
Tue 06:11:39 PM 44.6080 -89.7070 94° East 510 587 35,000  Level FlightAware ADS-B
Tue 06:12:15 PM 44.6010 -89.5880 95° East 510 587 35,000  Level FlightAware ADS-B
Tue 06:12:51 PM 44.5930 -89.4660 95° East 511 588 35,000  Level FlightAware ADS-B
Tue 06:13:23 PM 44.5870 -89.3610 95° East 511 588 35,000  Level FlightAware ADS-B
Tue 06:13:59 PM 44.5790 -89.2430 95° East 511 588 35,000  Level FlightAware ADS-B
Tue 06:14:37 PM 44.5720 -89.1220 95° East 511 588 35,000  Level FlightAware ADS-B
Tue 06:15:07 PM 44.5650 -89.0190 95° East 512 589 35,000  Level FlightAware ADS-B
Tue 06:15:43 PM 44.5580 -88.9020 95° East 513 590 35,000  Level FlightAware ADS-B
Tue 06:16:20 PM 44.5500 -88.7810 95° East 513 590 35,000  Level FlightAware ADS-B
Tue 06:16:53 PM 44.5420 -88.6720 96° East 513 590 35,000  Level FlightAware ADS-B
Tue 06:17:34 PM 44.5340 -88.5480 95° East 513 590 35,000  Level FlightAware ADS-B
Tue 06:18:10 PM 44.5250 -88.4180 96° East 512 589 35,000  Level FlightAware ADS-B
Tue 06:18:49 PM 44.5160 -88.2880 96° East 512 589 35,000  Level FlightAware ADS-B
Tue 06:19:23 PM 44.5080 -88.1750 96° East 511 588 35,000  Level FlightAware ADS-B
Tue 06:19:57 PM 44.5000 -88.0630 96° East 510 587 35,000  Level FlightAware ADS-B
Tue 06:20:31 PM 44.4920 -87.9560 96° East 508 585 35,000  Level FlightAware ADS-B
Tue 06:21:28 PM 44.4780 -87.7730 96° East 506 582 35,000  Level FlightAware ADS-B
Tue 06:22:04 PM 44.4690 -87.6510 96° East 505 581 35,000  Level FlightAware ADS-B
Tue 06:22:41 PM 44.4600 -87.5300 96° East 505 581 35,000  Level FlightAware ADS-B
Tue 06:23:13 PM 44.4510 -87.4250 97° East 505 581 35,000  Level FlightAware ADS-B
Tue 06:23:48 PM 44.4420 -87.3120 96° East 506 582 35,000  Level FlightAware ADS-B
Tue 06:24:22 PM 44.4340 -87.2090 96° East 507 583 35,000  Level FlightAware ADS-B
Tue 06:25:00 PM 44.4260 -87.1030 96° East 507 583 35,000  Level FlightAware ADS-B
Tue 06:25:35 PM 44.4140 -86.9660 97° East 509 586 35,000  Level FlightAware ADS-B
Tue 06:26:11 PM 44.4050 -86.8500 96° East 511 588 35,000  Level FlightAware ADS-B
Tue 06:26:39 PM 44.3970 -86.7560 97° East 512 589 35,000  Level FlightAware ADS-B
Tue 06:27:21 PM 44.3850 -86.6150 97° East 512 589 35,000  Level FlightAware ADS-B
Tue 06:27:54 PM 44.3760 -86.5130 97° East 512 589 35,000  Level FlightAware ADS-B
Tue 06:28:31 PM 44.3650 -86.3860 97° East 513 590 35,000  Level FlightAware ADS-B
Tue 06:29:04 PM 44.3550 -86.2790 97° East 514 592 35,000  Level FlightAware ADS-B
Tue 06:29:39 PM 44.3450 -86.1660 97° East 515 593 35,000  Level FlightAware ADS-B
Tue 06:30:15 PM 44.3340 -86.0430 97° East 517 595 35,000  Level FlightAware ADS-B
Tue 06:30:51 PM 44.3230 -85.9250 97° East 518 596 35,000  Level FlightAware ADS-B
Tue 06:31:23 PM 44.3140 -85.8230 97° East 519 597 35,000  Level FlightAware ADS-B
Tue 06:31:59 PM 44.3030 -85.7020 97° East 520 598 35,000  Level FlightAware ADS-B
Tue 06:32:35 PM 44.2910 -85.5800 98° East 522 601 35,000  Level FlightAware ADS-B
Tue 06:33:11 PM 44.2800 -85.4610 97° East 522 601 35,000  Level FlightAware ADS-B
Tue 06:33:43 PM 44.2690 -85.3520 98° East 523 602 35,000  Level FlightAware ADS-B
Tue 06:34:16 PM 44.2590 -85.2460 97° East 523 602 35,000  Level FlightAware ADS-B
Tue 06:34:52 PM 44.2460 -85.1230 98° East 523 602 35,000  Level FlightAware ADS-B
Tue 06:35:29 PM 44.2340 -84.9990 98° East 522 601 35,000  Level FlightAware ADS-B
Tue 06:36:04 PM 44.2220 -84.8840 98° East 523 602 35,000  Level FlightAware ADS-B
Tue 06:36:37 PM 44.2110 -84.7720 98° East 523 602 35,000  Level FlightAware ADS-B
Tue 06:37:17 PM 44.1980 -84.6430 98° East 523 602 35,000  Level FlightAware ADS-B
Tue 06:37:49 PM 44.1860 -84.5330 99° East 524 603 35,000  Level FlightAware ADS-B
Tue 06:38:26 PM 44.1750 -84.4130 97° East 524 603 35,000  Level FlightAware ADS-B
Tue 06:39:01 PM 44.1730 -84.2940 91° East 519 597 35,000  Level FlightAware ADS-B
Tue 06:39:33 PM 44.1770 -84.1870 87° East 518 596 35,000  Level FlightAware ADS-B
Tue 06:40:09 PM 44.1830 -84.0640 86° East 518 596 35,000  Level FlightAware ADS-B
Tue 06:40:45 PM 44.1880 -83.9460 87° East 517 595 35,000  Level FlightAware ADS-B
Tue 06:41:21 PM 44.1940 -83.8280 86° East 516 594 35,000  Level FlightAware ADS-B
Tue 06:41:51 PM 44.1980 -83.7270 87° East 516 594 35,000  Level FlightAware ADS-B
Tue 06:42:31 PM 44.2030 -83.5960 87° East 515 593 35,000  Level FlightAware ADS-B
Tue 06:43:03 PM 44.2070 -83.4900 87° East 514 592 35,000  Level FlightAware ADS-B
Tue 06:43:39 PM 44.2110 -83.3980 86° East 513 590 35,000  Level FlightAware ADS-B
Tue 06:44:14 PM 44.2150 -83.2840 87° East 512 589 35,000  Level FlightAware ADS-B
Tue 06:44:44 PM 44.2190 -83.1850 87° East 512 589 35,000  Level FlightAware ADS-B
Tue 06:45:23 PM 44.2240 -83.0540 87° East 511 588 35,000  Level FlightAware ADS-B
Tue 06:45:59 PM 44.2280 -82.9290 87° East 511 588 35,000  Level FlightAware ADS-B
Tue 06:46:36 PM 44.2320 -82.8120 87° East 511 588 35,000  Level FlightAware ADS-B
Tue 06:47:18 PM 44.2360 -82.6720 88° East 511 588 35,000  Level FlightAware ADS-B
Tue 06:47:50 PM 44.2400 -82.5720 87° East 512 589 35,000  Level FlightAware ADS-B
Tue 06:48:28 PM 44.2430 -82.4450 88° East 513 590 35,000  Level FlightAware ADS-B
Tue 06:49:06 PM 44.2470 -82.3150 87° East 513 590 35,000  Level FlightAware ADS-B
Tue 06:49:43 PM 44.2340 -82.1880 98° East 514 592 35,000  Level FlightAware ADS-B
Tue 06:50:13 PM 44.2140 -82.0860 105° East 514 592 35,000  Level FlightAware ADS-B
Tue 06:50:53 PM 44.1890 -81.9730 107° East 516 594 35,000  Level FlightAware ADS-B
Tue 06:51:29 PM 44.1640 -81.8560 107° East 517 595 35,000  Level FlightAware ADS-B
Tue 06:52:03 PM 44.1380 -81.7370 107° East 518 596 35,000  Level FlightAware ADS-B
Tue 06:52:38 PM 44.1130 -81.6250 107° East 518 596 35,000  Level FlightAware ADS-B
Tue 06:53:13 PM 44.0900 -81.5170 106° East 519 597 35,000  Level FlightAware ADS-B
Tue 06:53:48 PM 44.0640 -81.4020 107° East 520 598 35,000  Level FlightAware ADS-B
Tue 06:54:23 PM 44.0410 -81.2960 107° East 520 598 35,000  Level FlightAware ADS-B
Tue 06:55:03 PM 44.0110 -81.1610 107° East 522 601 35,000  Level FlightAware ADS-B
Tue 06:55:38 PM 43.9870 -81.0510 107° East 523 602 35,000  Level FlightAware ADS-B
Tue 06:56:13 PM 43.9610 -80.9380 108° East 525 604 35,000  Level FlightAware ADS-B
Tue 06:56:53 PM 43.9320 -80.8100 107° East 527 606 35,000  Level FlightAware ADS-B
Tue 06:57:23 PM 43.9120 -80.7180 107° East 528 608 35,000  Level FlightAware ADS-B
Tue 06:57:58 PM 43.8860 -80.6060 108° East 528 608 35,000  Level FlightAware ADS-B
Tue 06:58:38 PM 43.8570 -80.4780 107° East 528 608 35,000  Level FlightAware ADS-B
Tue 06:59:08 PM 43.8330 -80.3750 108° East 529 609 35,000  Level FlightAware ADS-B
Tue 06:59:53 PM 43.8010 -80.2370 108° East 529 609 35,000  Level FlightAware ADS-B
Tue 07:00:23 PM 43.7770 -80.1330 108° East 528 608 35,000  Level FlightAware ADS-B
Tue 07:01:03 PM 43.7470 -80.0060 108° East 527 606 35,000  Level FlightAware ADS-B
Tue 07:01:38 PM 43.7230 -79.9040 108° East 527 606 35,000  Level FlightAware ADS-B
Tue 07:02:13 PM 43.6960 -79.7880 108° East 525 604 35,000  Level FlightAware ADS-B
Tue 07:02:48 PM 43.6700 -79.6750 108° East 529 609 35,000  Level FlightAware ADS-B
Tue 07:03:18 PM 43.6610 -79.5700 97° East 538 619 35,000  Level FlightAware ADS-B
Tue 07:03:54 PM 43.6650 -79.4420 87° East 539 620 35,000  Level FlightAware ADS-B
Tue 07:04:34 PM 43.6700 -79.3090 87° East 539 620 35,000  Level FlightAware ADS-B
Tue 07:05:10 PM 43.6740 -79.1830 87° East 538 619 35,000  Level FlightAware ADS-B
Tue 07:05:40 PM 43.6780 -79.0770 87° East 538 619 35,000  Level FlightAware ADS-B
Tue 07:06:18 PM 43.6820 -78.9470 88° East 538 619 35,000  Level FlightAware ADS-B
Tue 07:06:54 PM 43.6860 -78.8220 87° East 538 619 35,000  Level FlightAware ADS-B
Tue 07:07:28 PM 43.6900 -78.7020 87° East 539 620 35,000  Level FlightAware ADS-B
Tue 07:08:00 PM 43.6930 -78.5950 88° East 540 621 35,000  Level FlightAware ADS-B
Tue 07:08:36 PM 43.6970 -78.4690 87° East 541 623 35,000  Level FlightAware ADS-B
Tue 07:09:12 PM 43.7000 -78.3460 88° East 543 625 35,000  Level FlightAware ADS-B
Tue 07:09:46 PM 43.7030 -78.2300 88° East 544 626 35,000  Level FlightAware ADS-B
Tue 07:10:22 PM 43.7060 -78.1050 88° East 545 627 35,000  Level FlightAware ADS-B
Tue 07:11:00 PM 43.7090 -77.9730 88° East 545 627 35,000  Level FlightAware ADS-B
Tue 07:11:32 PM 43.7120 -77.8620 88° East 547 629 35,000  Level FlightAware ADS-B
Tue 07:12:04 PM 43.7140 -77.7470 89° East 547 629 35,000  Level FlightAware ADS-B
Tue 07:12:38 PM 43.7170 -77.6340 88° East 548 631 35,000  Level FlightAware ADS-B
Tue 07:13:17 PM 43.7190 -77.4940 89° East 548 631 35,000  Level FlightAware ADS-B
Tue 07:13:53 PM 43.7220 -77.3690 88° East 547 629 35,000  Level FlightAware ADS-B
Tue 07:14:29 PM 43.7240 -77.2410 89° East 547 629 35,000  Level FlightAware ADS-B
Tue 07:15:02 PM 43.7260 -77.1290 89° East 547 629 35,000  Level FlightAware ADS-B
Tue 07:15:37 PM 43.7280 -77.0090 89° East 546 628 35,000  Level FlightAware ADS-B
Tue 07:16:11 PM 43.7290 -76.8890 89° East 545 627 35,000 -83 Level FlightAware ADS-B
Tue 07:16:49 PM 43.7210 -76.7570 95° East 527 606 34,900 -414 Descending FlightAware ADS-B
Tue 07:17:09 PM 43.7030 -76.6970 113° Southeast 509 586 34,600 -1,393 Descending FlightAware ADS-B
Tue 07:17:45 PM 43.6490 -76.6090 130° Southeast 492 566 33,600 -1,235 Descending FlightAware ADS-B
Tue 07:18:17 PM 43.5990 -76.5420 136° Southeast 489 563 33,200 -514 Descending FlightAware ADS-B
Tue 07:18:55 PM 43.5370 -76.4600 136° Southeast 487 560 33,000 -162 Descending FlightAware ADS-B
Tue 07:19:31 PM 43.4760 -76.3810 137° Southeast 490 564 33,000  Level FlightAware ADS-B
Tue 07:20:04 PM 43.4240 -76.3130 136° Southeast 490 564 33,000  Level FlightAware ADS-B
Tue 07:20:39 PM 43.3660 -76.2370 136° Southeast 493 567 33,000  Level FlightAware ADS-B
Tue 07:21:16 PM 43.3070 -76.1590 136° Southeast 493 567 33,000  Level FlightAware ADS-B
Tue 07:21:47 PM 43.2530 -76.0890 137° Southeast 495 570 33,000  Level FlightAware ADS-B
Tue 07:22:23 PM 43.1930 -76.0110 137° Southeast 495 570 33,000  Level FlightAware ADS-B
Tue 07:23:01 PM 43.1310 -75.9300 136° Southeast 496 571 33,000  Level FlightAware ADS-B
Tue 07:23:33 PM 43.0780 -75.8610 136° Southeast 495 570 33,000  Level FlightAware ADS-B
Tue 07:24:07 PM 43.0200 -75.7870 137° Southeast 496 571 33,000  Level FlightAware ADS-B
Tue 07:24:45 PM 42.9560 -75.7050 137° Southeast 498 573 33,000  Level FlightAware ADS-B
Tue 07:25:15 PM 42.9060 -75.6410 137° Southeast 500 575 33,000  Level FlightAware ADS-B
Tue 07:25:55 PM 42.8390 -75.5540 136° Southeast 500 575 33,000  Level FlightAware ADS-B
Tue 07:26:31 PM 42.7790 -75.4770 137° Southeast 502 578 33,000 -265 Level FlightAware ADS-B
Tue 07:27:03 PM 42.7260 -75.4110 138° Southeast 500 575 32,700 -882 Descending FlightAware ADS-B
Tue 07:27:39 PM 42.6640 -75.3320 137° Southeast 503 579 32,000 -1,167 Descending FlightAware ADS-B
Tue 07:28:15 PM 42.6020 -75.2530 137° Southeast 505 581 31,300 -1,000 Descending FlightAware ADS-B
Tue 07:28:51 PM 42.5420 -75.1770 137° Southeast 503 579 30,800 -794 Descending FlightAware ADS-B
Tue 07:29:23 PM 42.4890 -75.1100 137° Southeast 496 571 30,400 -882 Descending FlightAware ADS-B
Tue 07:29:59 PM 42.4270 -75.0330 137° Southeast 495 570 29,800 -818 Descending FlightAware ADS-B
Tue 07:30:29 PM 42.3890 -74.9850 137° Southeast 285 328 29,500 -429 Descending FlightAware ADS-B
Tue 07:31:09 PM 42.3250 -74.9050 137° Southeast 492 566 29,300 -1,125 Descending FlightAware ADS-B
Tue 07:31:49 PM 42.2470 -74.8080 137° Southeast 490 564 28,000 -1,000 Descending FlightAware ADS-B
Tue 07:32:27 PM 42.1850 -74.7310 137° Southeast 502 578 28,000  Level FlightAware ADS-B
Tue 07:33:06 PM 42.1290 -74.6600 137° Southeast 502 578 28,000  Level FlightAware ADS-B
Tue 07:33:48 PM 42.0480 -74.5610 138° Southeast 504 580 28,000  Level FlightAware ADS-B
Tue 07:34:40 PM 41.9520 -74.4680 144° Southeast 491 565 28,000  Level FlightAware ADS-B
Tue 07:35:18 PM 41.8650 -74.4090 153° Southeast 480 552 28,000  Level FlightAware ADS-B
Tue 07:36:02 PM 41.7800 -74.3485 152° Southeast 479 551 28,000 -1,020 Level FlightAware ADS-B
Tue 07:36:58 PM 41.6685 -74.2684 152° Southeast 483 556 26,300 -2,138 Descending FlightAware ADS-B
Tue 07:37:29 PM 41.6081 -74.2243 151° Southeast 475 547 24,900 -2,545 Descending FlightAware ADS-B
Tue 07:38:04 PM 41.5426 -74.1766 151° Southeast 466 536 23,500 -2,506 Descending FlightAware ADS-B
Tue 07:38:48 PM 41.4600 -74.1169 152° Southeast 453 521 21,600 -2,609 Descending FlightAware ADS-B
Tue 07:39:13 PM 41.4129 -74.0916 158° South 432 497 20,500 -1,745 Descending FlightAware ADS-B
Tue 07:39:43 PM 41.3548 -74.0783 170° South 421 484 20,000 -484 Descending FlightAware ADS-B
Tue 07:40:15 PM 41.2936 -74.0648 171° South 420 483 20,000 -281 Level FlightAware ADS-B
Tue 07:40:47 PM 41.2337 -74.0522 171° South 407 468 19,700 -871 Descending FlightAware ADS-B
Tue 07:41:17 PM 41.1783 -74.0405 171° South 387 445 19,100 -737 Descending FlightAware ADS-B
Tue 07:41:44 PM 41.1358 -74.0319 171° South 342 394 19,000 -194 Descending FlightAware ADS-B
Tue 07:41:48 PM 41.1288 -74.0305 171° South 340 391 19,000  Level FlightAware ADS-B
Tue 07:42:08 PM 41.0981 -74.0244 171° South 332 382 19,000  Level FlightAware ADS-B
Tue 07:42:13 PM 41.0900 -74.0233 174° South 331 381 19,000  Level FlightAware ADS-B
Tue 07:42:19 PM 41.0820 -74.0229 178° South 328 377 19,000  Level FlightAware ADS-B
Tue 07:42:25 PM 41.0716 -74.0236 183° South 325 374 19,000  Level FlightAware ADS-B
Tue 07:42:26 PM 41.0703 -74.0237 183° South 324 373 19,000  Level FlightAware ADS-B
Tue 07:42:35 PM 41.0577 -74.0261 188° South 323 372 19,000  Level FlightAware ADS-B
Tue 07:42:42 PM 41.0472 -74.0295 194° South 319 367 19,000  Level FlightAware ADS-B
Tue 07:42:45 PM 41.0438 -74.0309 197° South 317 365 19,000  Level FlightAware ADS-B
Tue 07:42:54 PM 41.0312 -74.0372 201° Southwest 310 357 19,000  Level FlightAware ADS-B
Tue 07:42:58 PM 41.0263 -74.0402 205° Southwest 308 354 19,000  Level FlightAware ADS-B
Tue 07:43:05 PM 41.0179 -74.0463 209° Southwest 305 351 19,000  Level FlightAware ADS-B
Tue 07:43:09 PM 41.0126 -74.0506 211° Southwest 303 349 19,000 -667 Level FlightAware ADS-B
Tue 07:43:41 PM 40.9754 -74.0828 213° Southwest 299 344 18,600 -1,091 Descending FlightAware ADS-B
Tue 07:44:04 PM 40.9479 -74.1050 211° Southwest 302 348 18,000 -1,500 Descending FlightAware ADS-B
Tue 07:44:09 PM 40.9413 -74.1084 201° Southwest 305 351 17,900 -1,667 Descending FlightAware ADS-B
Tue 07:44:22 PM 40.9225 -74.1129 190° South 299 344 17,500 -1,714 Descending FlightAware ADS-B
Tue 07:44:23 PM 40.9210 -74.1129 180° South 314 361 17,500 -2,000 Level FlightAware ADS-B
Tue 07:44:25 PM 40.9181 -74.1129 180° South 317 365 17,400 -1,500 Descending FlightAware ADS-B
Tue 07:44:27 PM 40.9155 -74.1126 175° South 319 367 17,400 -1,000 Level FlightAware ADS-B
Tue 07:44:31 PM 40.9103 -74.1118 173° South 321 369 17,300 -1,714 Descending FlightAware ADS-B
Tue 07:44:34 PM 40.9061 -74.1107 169° South 322 371 17,200 -2,000 Descending FlightAware ADS-B
Tue 07:44:40 PM 40.8970 -74.1075 165° South 324 373 17,000 -1,714 Descending FlightAware ADS-B
Tue 07:44:41 PM 40.8963 -74.1072 162° South 324 373 17,000 -1,355 Level FlightAware ADS-B
Tue 07:45:11 PM 40.8524 -74.0863 160° South 324 373 16,300 -787 Descending FlightAware ADS-B
Tue 07:45:42 PM 40.8088 -74.0652 160° South 326 375 16,200 -188 Descending FlightAware ADS-B
Tue 07:45:43 PM 40.8077 -74.0646 158° South 326 375 16,200 -774 Level FlightAware ADS-B
Tue 07:46:13 PM 40.7654 -74.0443 160° South 324 373 15,800 -938 Descending FlightAware ADS-B
Tue 07:46:15 PM 40.7626 -74.0430 161° South 324 373 15,700 -1,688 Descending FlightAware ADS-B
Tue 07:46:45 PM 40.7200 -74.0226 160° South 322 371 14,900 -1,552 Descending FlightAware ADS-B
Tue 07:47:13 PM 40.6810 -74.0047 161° South 320 368 14,200 -1,532 Descending FlightAware ADS-B
Tue 07:47:32 PM 40.6545 -73.9929 161° South 317 365 13,700 -1,333 Descending FlightAware ADS-B
Tue 07:47:40 PM 40.6444 -73.9872 157° South 318 366 13,600 -1,385 Descending FlightAware ADS-B
Tue 07:47:45 PM 40.6371 -73.9826 154° Southeast 317 365 13,400 -750 Descending FlightAware ADS-B
Tue 07:48:12 PM 40.6030 -73.9595 153° Southeast 315 362 13,200 -203 Descending FlightAware ADS-B
Tue 07:48:44 PM 40.5614 -73.9305 152° Southeast 317 365 13,200 -387 Level FlightAware ADS-B
Tue 07:49:14 PM 40.5229 -73.9033 152° Southeast 314 361 12,800 -1,200 Descending FlightAware ADS-B
Tue 07:49:44 PM 40.4843 -73.8764 152° Southeast 314 361 12,000 -1,500 Descending FlightAware ADS-B
Tue 07:50:14 PM 40.4452 -73.8500 153° Southeast 312 359 11,300 -1,459 Descending FlightAware ADS-B
Tue 07:50:21 PM 40.4363 -73.8439 152° Southeast 311 358 11,100 -1,500 Descending FlightAware ADS-B
Tue 07:50:26 PM 40.4308 -73.8395 149° Southeast 312 359 11,000 -1,091 Descending FlightAware ADS-B
Tue 07:50:32 PM 40.4237 -73.8324 143° Southeast 315 362 10,900 -1,091 Descending FlightAware ADS-B
Tue 07:50:37 PM 40.4176 -73.8250 137° Southeast 316 364 10,800 -1,333 Descending FlightAware ADS-B
Tue 07:51:08 PM 40.3876 -73.7823 133° Southeast 314 361 10,100 -1,375 Descending FlightAware ADS-B
Tue 07:51:25 PM 40.3726 -73.7559 127° Southeast 318 366 9,700 -1,440 Descending FlightAware ADS-B
Tue 07:51:33 PM 40.3684 -73.7417 111° Southeast 317 365 9,500 -1,286 Descending FlightAware ADS-B
Tue 07:51:39 PM 40.3658 -73.7300 106° East 317 365 9,400 -1,200 Descending FlightAware ADS-B
Tue 07:51:58 PM 40.3589 -73.6964 105° East 316 364 9,000 -1,385 Descending FlightAware ADS-B
Tue 07:52:05 PM 40.3563 -73.6817 103° East 314 361 8,800 -1,091 Descending FlightAware ADS-B
Tue 07:52:09 PM 40.3556 -73.6746 97° East 314 361 8,800 -667 Level FlightAware ADS-B
Tue 07:52:14 PM 40.3555 -73.6658 91° East 313 360 8,700 -1,333 Descending FlightAware ADS-B
Tue 07:52:18 PM 40.3561 -73.6586 84° East 311 358 8,600 -1,091 Descending FlightAware ADS-B
Tue 07:52:25 PM 40.3587 -73.6455 75° East 308 354 8,500 -1,091 Descending FlightAware ADS-B
Tue 07:52:40 PM 40.3705 -73.6219 57° Northeast 302 348 8,200 -1,263 Descending FlightAware ADS-B
Tue 07:52:44 PM 40.3739 -73.6179 42° Northeast 299 344 8,100 -1,000 Descending FlightAware ADS-B
Tue 07:52:52 PM 40.3831 -73.6095 35° Northeast 295 339 8,000 -1,250 Descending FlightAware ADS-B
Tue 07:53:08 PM 40.4014 -73.5952 31° Northeast 291 335 7,600 -1,355 Descending FlightAware ADS-B
Tue 07:53:23 PM 40.4198 -73.5811 30° Northeast 291 335 7,300 -558 Descending FlightAware ADS-B
Tue 07:53:51 PM 40.4512 -73.5569 30° Northeast 289 333 7,200 -125 Descending FlightAware ADS-B
Tue 07:54:11 PM 40.4747 -73.5389 30° Northeast 288 331 7,200  Level FlightAware ADS-B
Tue 07:54:26 PM 40.4923 -73.5252 31° Northeast 287 330 7,200 -554 Level FlightAware ADS-B
Tue 07:55:16 PM 40.5489 -73.4811 31° Northeast 287 330 6,600 -892 Descending FlightAware ADS-B
Tue 07:55:40 PM 40.5770 -73.4634 26° Northeast 279 321 6,100 -1,263 Descending FlightAware ADS-B
Tue 07:56:13 PM 40.6170 -73.4430 21° North 277 319 5,400 -1,080 Descending FlightAware ADS-B
Tue 07:56:30 PM 40.6350 -73.4370 14° North 269 310 5,200 -293 Descending FlightAware ADS-B
Tue 07:56:54 PM 40.6650 -73.4410 354° North 267 307 5,200  Level FlightAware ADS-B
Tue 07:57:16 PM 40.6930 -73.4470 351° North 266 306 5,200  Level FlightAware ADS-B
Tue 07:57:40 PM 40.7220 -73.4540 350° North 265 305 5,200 -133 Level FlightAware ADS-B
Tue 07:58:01 PM 40.7480 -73.4600 350° North 263 303 5,100 -545 Descending FlightAware ADS-B
Tue 07:58:13 PM 40.7620 -73.4640 348° North 260 299 4,900 -900 Descending FlightAware ADS-B
Tue 07:58:21 PM 40.7700 -73.4690 335° Northwest 257 296 4,800 -857 Descending FlightAware ADS-B
Tue 07:58:27 PM 40.7760 -73.4760 319° Northwest 252 290 4,700 -1,111 Descending FlightAware ADS-B
Tue 07:58:48 PM 40.7910 -73.5000 310° West 247 284 4,300 -857 Descending FlightAware ADS-B
Tue 07:59:09 PM 40.8050 -73.5250 307° West 231 266 4,100 -615 Descending FlightAware ADS-B
Tue 07:59:27 PM 40.8160 -73.5450 306° West 215 247 3,900 -857 Descending FlightAware ADS-B
Tue 07:59:44 PM 40.8260 -73.5620 308° West 206 237 3,600 -769 Descending FlightAware ADS-B
Tue 08:00:06 PM 40.8380 -73.5810 310° West 190 219 3,400 -600 Descending FlightAware ADS-B
Tue 08:00:14 PM 40.8410 -73.5900 294° West 184 212 3,300 -1,000 Descending FlightAware ADS-B
Tue 08:00:18 PM 40.8420 -73.5960 282° West 183 211 3,200 -214 Descending FlightAware ADS-B
Tue 08:00:42 PM 40.8340 -73.6190 245° Southwest 182 209 3,200  Level FlightAware ADS-B
Tue 08:01:02 PM 40.8250 -73.6330 230° Southwest 181 208 3,200  Level FlightAware ADS-B
Tue 08:01:22 PM 40.8100 -73.6490 219° Southwest 182 209 3,200  Level FlightAware ADS-B
Tue 08:01:39 PM 40.7980 -73.6590 212° Southwest 185 213 3,200  Level FlightAware ADS-B
Tue 08:01:58 PM 40.7830 -73.6700 209° Southwest 186 214 3,200 -300 Level FlightAware ADS-B
Tue 08:02:19 PM 40.7680 -73.6810 209° Southwest 187 215 3,000 -818 Descending FlightAware ADS-B
Tue 08:02:42 PM 40.7500 -73.6930 207° Southwest 188 216 2,600 -1,024 Descending FlightAware ADS-B
Tue 08:03:00 PM 40.7360 -73.7030 208° Southwest 188 216 2,300 -1,050 Descending FlightAware ADS-B
Tue 08:03:22 PM 40.7190 -73.7150 208° Southwest 178 205 1,900 -977 Descending FlightAware ADS-B
Tue 08:03:43 PM 40.7050 -73.7250 208° Southwest 162 186 1,600 -769 Descending FlightAware ADS-B
Tue 08:04:01 PM 40.6940 -73.7330 209° Southwest 147 169 1,400 -833 Descending FlightAware ADS-B
Tue 08:04:19 PM 40.6830 -73.7400 206° Southwest 131 151 1,100 -789 Descending FlightAware ADS-B
Tue 08:04:39 PM 40.6720 -73.7470 206° Southwest 124 143 900 -500 Descending FlightAware ADS-B
Tue 08:04:55 PM 40.6650 -73.7520 208° Southwest 125 144 800 -649 Descending FlightAware ADS-B
Tue 08:05:16 PM 40.6540 -73.7610 212° Southwest 127 146 500 -732 Descending FlightAware ADS-B
Tue 08:05:36 PM 40.6430 -73.7690 209° Southwest 129 148 300 -600 Descending FlightAware ADS-B
Tue 08:05:55 PM 40.6340 -73.7760 211° Southwest 115 132 -947 Descending FlightAware ADS-B

Login

Don't have an account? Register now (free) for customized features, flight alerts, and more!